sensor_id;sensor_type;location;lat;lon;timestamp;pressure;altitude;pressure_sealevel;temperature
41940;BMP180;23057;48.554;14.454;2022-08-03T00:00:14;94088.00;;;24.30
41940;BMP180;23057;48.554;14.454;2022-08-03T00:02:45;94088.00;;;24.20
41940;BMP180;23057;48.554;14.454;2022-08-03T00:05:16;94096.00;;;24.20
41940;BMP180;23057;48.554;14.454;2022-08-03T00:07:46;94090.00;;;24.20
41940;BMP180;23057;48.554;14.454;2022-08-03T00:10:17;94094.00;;;24.20
41940;BMP180;23057;48.554;14.454;2022-08-03T00:12:48;94094.00;;;24.20
41940;BMP180;23057;48.554;14.454;2022-08-03T00:15:20;94090.00;;;24.20
41940;BMP180;23057;48.554;14.454;2022-08-03T00:17:51;94096.00;;;24.10
41940;BMP180;23057;48.554;14.454;2022-08-03T00:20:22;94090.00;;;24.10
41940;BMP180;23057;48.554;14.454;2022-08-03T00:22:53;94084.00;;;24.10
41940;BMP180;23057;48.554;14.454;2022-08-03T00:25:24;94090.00;;;24.00
41940;BMP180;23057;48.554;14.454;2022-08-03T00:27:55;94095.00;;;24.00
41940;BMP180;23057;48.554;14.454;2022-08-03T00:30:26;94091.00;;;23.90
41940;BMP180;23057;48.554;14.454;2022-08-03T00:32:57;94092.00;;;23.80
41940;BMP180;23057;48.554;14.454;2022-08-03T00:35:29;94089.00;;;23.80
41940;BMP180;23057;48.554;14.454;2022-08-03T00:38:00;94085.00;;;23.80
41940;BMP180;23057;48.554;14.454;2022-08-03T00:40:31;94086.00;;;23.80
41940;BMP180;23057;48.554;14.454;2022-08-03T00:43:04;94088.00;;;23.80
41940;BMP180;23057;48.554;14.454;2022-08-03T00:45:39;94088.00;;;23.70
41940;BMP180;23057;48.554;14.454;2022-08-03T00:48:11;94091.00;;;23.70
41940;BMP180;23057;48.554;14.454;2022-08-03T00:50:42;94085.00;;;23.70
41940;BMP180;23057;48.554;14.454;2022-08-03T00:53:14;94088.00;;;23.70
41940;BMP180;23057;48.554;14.454;2022-08-03T00:55:45;94083.00;;;23.70
41940;BMP180;23057;48.554;14.454;2022-08-03T00:58:16;94083.00;;;23.70
41940;BMP180;23057;48.554;14.454;2022-08-03T01:00:47;94080.00;;;23.60
41940;BMP180;23057;48.554;14.454;2022-08-03T01:03:18;94087.00;;;23.60
41940;BMP180;23057;48.554;14.454;2022-08-03T01:05:55;94083.00;;;23.60
41940;BMP180;23057;48.554;14.454;2022-08-03T01:14:12;94092.00;;;23.50
41940;BMP180;23057;48.554;14.454;2022-08-03T01:16:58;94090.00;;;23.50
41940;BMP180;23057;48.554;14.454;2022-08-03T01:20:01;94085.00;;;23.50
41940;BMP180;23057;48.554;14.454;2022-08-03T01:31:56;94085.00;;;23.40
41940;BMP180;23057;48.554;14.454;2022-08-03T01:34:35;94077.00;;;23.40
41940;BMP180;23057;48.554;14.454;2022-08-03T01:37:20;94076.00;;;23.30
41940;BMP180;23057;48.554;14.454;2022-08-03T01:39:57;94067.00;;;23.20
41940;BMP180;23057;48.554;14.454;2022-08-03T01:42:31;94067.00;;;23.10
41940;BMP180;23057;48.554;14.454;2022-08-03T01:45:08;94070.00;;;23.00
41940;BMP180;23057;48.554;14.454;2022-08-03T01:47:43;94069.00;;;23.00
41940;BMP180;23057;48.554;14.454;2022-08-03T01:50:20;94072.00;;;23.00
41940;BMP180;23057;48.554;14.454;2022-08-03T01:52:55;94069.00;;;23.00
41940;BMP180;23057;48.554;14.454;2022-08-03T01:55:28;94062.00;;;22.90
41940;BMP180;23057;48.554;14.454;2022-08-03T01:58:03;94069.00;;;22.90
41940;BMP180;23057;48.554;14.454;2022-08-03T02:00:37;94073.00;;;22.90
41940;BMP180;23057;48.554;14.454;2022-08-03T02:03:11;94072.00;;;22.80
41940;BMP180;23057;48.554;14.454;2022-08-03T02:05:45;94069.00;;;22.80
41940;BMP180;23057;48.554;14.454;2022-08-03T02:08:18;94070.00;;;22.70
41940;BMP180;23057;48.554;14.454;2022-08-03T02:10:50;94063.00;;;22.60
41940;BMP180;23057;48.554;14.454;2022-08-03T02:13:25;94061.00;;;22.50
41940;BMP180;23057;48.554;14.454;2022-08-03T02:16:00;94053.00;;;22.50
41940;BMP180;23057;48.554;14.454;2022-08-03T02:18:33;94053.00;;;22.50
41940;BMP180;23057;48.554;14.454;2022-08-03T02:21:06;94054.00;;;22.40
41940;BMP180;23057;48.554;14.454;2022-08-03T02:23:39;94059.00;;;22.50
41940;BMP180;23057;48.554;14.454;2022-08-03T02:26:14;94056.00;;;22.50
41940;BMP180;23057;48.554;14.454;2022-08-03T02:28:51;94052.00;;;22.60
41940;BMP180;23057;48.554;14.454;2022-08-03T02:31:28;94052.00;;;22.60
41940;BMP180;23057;48.554;14.454;2022-08-03T02:34:07;94053.00;;;22.60
41940;BMP180;23057;48.554;14.454;2022-08-03T02:36:45;94050.00;;;22.50
41940;BMP180;23057;48.554;14.454;2022-08-03T02:39:20;94050.00;;;22.50
41940;BMP180;23057;48.554;14.454;2022-08-03T02:41:56;94058.00;;;22.40
41940;BMP180;23057;48.554;14.454;2022-08-03T02:44:32;94059.00;;;22.30
41940;BMP180;23057;48.554;14.454;2022-08-03T02:47:07;94058.00;;;22.30
41940;BMP180;23057;48.554;14.454;2022-08-03T02:49:41;94055.00;;;22.30
41940;BMP180;23057;48.554;14.454;2022-08-03T02:52:14;94055.00;;;22.30
41940;BMP180;23057;48.554;14.454;2022-08-03T02:54:48;94059.00;;;22.30
41940;BMP180;23057;48.554;14.454;2022-08-03T02:57:23;94052.00;;;22.40
41940;BMP180;23057;48.554;14.454;2022-08-03T02:59:57;94055.00;;;22.40
41940;BMP180;23057;48.554;14.454;2022-08-03T03:02:30;94058.00;;;22.30
41940;BMP180;23057;48.554;14.454;2022-08-03T03:05:03;94053.00;;;22.30
41940;BMP180;23057;48.554;14.454;2022-08-03T03:07:35;94059.00;;;22.30
41940;BMP180;23057;48.554;14.454;2022-08-03T03:10:08;94053.00;;;22.20
41940;BMP180;23057;48.554;14.454;2022-08-03T03:12:41;94055.00;;;22.20
41940;BMP180;23057;48.554;14.454;2022-08-03T03:15:14;94060.00;;;22.10
41940;BMP180;23057;48.554;14.454;2022-08-03T03:17:47;94059.00;;;22.10
41940;BMP180;23057;48.554;14.454;2022-08-03T03:20:20;94058.00;;;22.10
41940;BMP180;23057;48.554;14.454;2022-08-03T03:22:53;94060.00;;;22.10
41940;BMP180;23057;48.554;14.454;2022-08-03T03:25:27;94061.00;;;22.00
41940;BMP180;23057;48.554;14.454;2022-08-03T03:28:01;94059.00;;;22.00
41940;BMP180;23057;48.554;14.454;2022-08-03T03:30:33;94058.00;;;22.00
41940;BMP180;23057;48.554;14.454;2022-08-03T03:33:04;94057.00;;;22.00
41940;BMP180;23057;48.554;14.454;2022-08-03T03:35:35;94057.00;;;22.00
41940;BMP180;23057;48.554;14.454;2022-08-03T03:38:07;94062.00;;;22.00
41940;BMP180;23057;48.554;14.454;2022-08-03T03:40:38;94063.00;;;22.10
41940;BMP180;23057;48.554;14.454;2022-08-03T03:43:10;94048.00;;;22.10
41940;BMP180;23057;48.554;14.454;2022-08-03T03:45:42;94056.00;;;22.10
41940;BMP180;23057;48.554;14.454;2022-08-03T03:48:13;94054.00;;;22.00
41940;BMP180;23057;48.554;14.454;2022-08-03T03:50:45;94058.00;;;22.00
41940;BMP180;23057;48.554;14.454;2022-08-03T03:53:16;94062.00;;;21.90
41940;BMP180;23057;48.554;14.454;2022-08-03T03:55:48;94053.00;;;21.90
41940;BMP180;23057;48.554;14.454;2022-08-03T03:58:19;94063.00;;;21.90
41940;BMP180;23057;48.554;14.454;2022-08-03T04:00:50;94065.00;;;21.90
41940;BMP180;23057;48.554;14.454;2022-08-03T04:03:23;94067.00;;;22.10
41940;BMP180;23057;48.554;14.454;2022-08-03T04:05:54;94063.00;;;22.40
41940;BMP180;23057;48.554;14.454;2022-08-03T04:08:44;94062.00;;;22.50
41940;BMP180;23057;48.554;14.454;2022-08-03T04:11:44;94059.00;;;22.70
41940;BMP180;23057;48.554;14.454;2022-08-03T04:14:27;94065.00;;;23.00
41940;BMP180;23057;48.554;14.454;2022-08-03T04:17:07;94064.00;;;23.40
41940;BMP180;23057;48.554;14.454;2022-08-03T04:19:51;94074.00;;;23.60
41940;BMP180;23057;48.554;14.454;2022-08-03T04:22:25;94069.00;;;23.90
41940;BMP180;23057;48.554;14.454;2022-08-03T04:25:02;94072.00;;;24.20
41940;BMP180;23057;48.554;14.454;2022-08-03T04:27:39;94067.00;;;24.40
41940;BMP180;23057;48.554;14.454;2022-08-03T04:30:11;94070.00;;;24.70
41940;BMP180;23057;48.554;14.454;2022-08-03T04:32:44;94082.00;;;25.10
41940;BMP180;23057;48.554;14.454;2022-08-03T04:35:23;94083.00;;;25.40
41940;BMP180;23057;48.554;14.454;2022-08-03T04:37:56;94080.00;;;25.60
41940;BMP180;23057;48.554;14.454;2022-08-03T04:40:39;94086.00;;;25.90
41940;BMP180;23057;48.554;14.454;2022-08-03T04:43:14;94081.00;;;26.10
41940;BMP180;23057;48.554;14.454;2022-08-03T04:45:48;94088.00;;;26.50
41940;BMP180;23057;48.554;14.454;2022-08-03T04:48:20;94094.00;;;26.80
41940;BMP180;23057;48.554;14.454;2022-08-03T04:50:52;94087.00;;;27.00
41940;BMP180;23057;48.554;14.454;2022-08-03T04:53:24;94091.00;;;27.30
41940;BMP180;23057;48.554;14.454;2022-08-03T04:56:03;94096.00;;;27.50
41940;BMP180;23057;48.554;14.454;2022-08-03T04:58:35;94092.00;;;27.70
41940;BMP180;23057;48.554;14.454;2022-08-03T05:01:05;94101.00;;;27.90
41940;BMP180;23057;48.554;14.454;2022-08-03T05:03:36;94093.00;;;28.10
41940;BMP180;23057;48.554;14.454;2022-08-03T05:06:07;94095.00;;;28.30
41940;BMP180;23057;48.554;14.454;2022-08-03T05:08:39;94096.00;;;28.50
41940;BMP180;23057;48.554;14.454;2022-08-03T05:11:10;94097.00;;;28.70
41940;BMP180;23057;48.554;14.454;2022-08-03T05:13:41;94101.00;;;28.90
41940;BMP180;23057;48.554;14.454;2022-08-03T05:16:13;94094.00;;;29.00
41940;BMP180;23057;48.554;14.454;2022-08-03T05:18:44;94101.00;;;29.20
41940;BMP180;23057;48.554;14.454;2022-08-03T05:21:15;94090.00;;;29.30
41940;BMP180;23057;48.554;14.454;2022-08-03T05:23:46;94096.00;;;29.40
41940;BMP180;23057;48.554;14.454;2022-08-03T05:26:17;94101.00;;;29.60
41940;BMP180;23057;48.554;14.454;2022-08-03T05:28:48;94102.00;;;29.70
41940;BMP180;23057;48.554;14.454;2022-08-03T05:31:19;94100.00;;;29.80
41940;BMP180;23057;48.554;14.454;2022-08-03T05:33:49;94099.00;;;29.90
41940;BMP180;23057;48.554;14.454;2022-08-03T05:36:20;94104.00;;;30.00
41940;BMP180;23057;48.554;14.454;2022-08-03T05:38:51;94105.00;;;30.20
41940;BMP180;23057;48.554;14.454;2022-08-03T05:41:22;94104.00;;;30.30
41940;BMP180;23057;48.554;14.454;2022-08-03T05:43:53;94105.00;;;30.60
41940;BMP180;23057;48.554;14.454;2022-08-03T05:46:25;94107.00;;;30.70
41940;BMP180;23057;48.554;14.454;2022-08-03T05:48:55;94110.00;;;30.80
41940;BMP180;23057;48.554;14.454;2022-08-03T05:51:26;94112.00;;;30.90
41940;BMP180;23057;48.554;14.454;2022-08-03T05:53:58;94117.00;;;31.00
41940;BMP180;23057;48.554;14.454;2022-08-03T05:56:29;94112.00;;;31.10
41940;BMP180;23057;48.554;14.454;2022-08-03T05:58:59;94113.00;;;31.30
41940;BMP180;23057;48.554;14.454;2022-08-03T06:01:30;94111.00;;;31.40
41940;BMP180;23057;48.554;14.454;2022-08-03T06:04:02;94108.00;;;31.50
41940;BMP180;23057;48.554;14.454;2022-08-03T06:06:33;94110.00;;;31.70
41940;BMP180;23057;48.554;14.454;2022-08-03T06:09:04;94107.00;;;31.80
41940;BMP180;23057;48.554;14.454;2022-08-03T06:11:35;94106.00;;;31.80
41940;BMP180;23057;48.554;14.454;2022-08-03T06:14:06;94110.00;;;31.90
41940;BMP180;23057;48.554;14.454;2022-08-03T06:16:37;94111.00;;;32.00
41940;BMP180;23057;48.554;14.454;2022-08-03T06:19:08;94113.00;;;32.00
41940;BMP180;23057;48.554;14.454;2022-08-03T06:21:39;94111.00;;;32.10
41940;BMP180;23057;48.554;14.454;2022-08-03T06:24:09;94116.00;;;32.20
41940;BMP180;23057;48.554;14.454;2022-08-03T06:26:40;94118.00;;;32.30
41940;BMP180;23057;48.554;14.454;2022-08-03T06:29:11;94112.00;;;32.40
41940;BMP180;23057;48.554;14.454;2022-08-03T06:31:42;94109.00;;;32.50
41940;BMP180;23057;48.554;14.454;2022-08-03T06:34:13;94111.00;;;32.60
41940;BMP180;23057;48.554;14.454;2022-08-03T06:36:44;94118.00;;;32.80
41940;BMP180;23057;48.554;14.454;2022-08-03T06:39:17;94118.00;;;32.90
41940;BMP180;23057;48.554;14.454;2022-08-03T06:41:48;94120.00;;;33.10
41940;BMP180;23057;48.554;14.454;2022-08-03T06:44:19;94118.00;;;33.20
41940;BMP180;23057;48.554;14.454;2022-08-03T06:46:50;94123.00;;;33.10
41940;BMP180;23057;48.554;14.454;2022-08-03T06:49:21;94128.00;;;33.10
41940;BMP180;23057;48.554;14.454;2022-08-03T06:51:52;94132.00;;;33.10
41940;BMP180;23057;48.554;14.454;2022-08-03T06:54:23;94132.00;;;33.20
41940;BMP180;23057;48.554;14.454;2022-08-03T06:56:54;94134.00;;;33.20
41940;BMP180;23057;48.554;14.454;2022-08-03T06:59:25;94130.00;;;33.40
41940;BMP180;23057;48.554;14.454;2022-08-03T07:01:55;94136.00;;;33.50
41940;BMP180;23057;48.554;14.454;2022-08-03T07:04:26;94129.00;;;33.60
41940;BMP180;23057;48.554;14.454;2022-08-03T07:06:57;94132.00;;;33.60
41940;BMP180;23057;48.554;14.454;2022-08-03T07:09:28;94130.00;;;33.60
41940;BMP180;23057;48.554;14.454;2022-08-03T07:11:59;94130.00;;;33.50
41940;BMP180;23057;48.554;14.454;2022-08-03T07:14:31;94129.00;;;33.50
41940;BMP180;23057;48.554;14.454;2022-08-03T07:17:02;94129.00;;;33.60
41940;BMP180;23057;48.554;14.454;2022-08-03T07:19:33;94129.00;;;33.70
41940;BMP180;23057;48.554;14.454;2022-08-03T07:22:04;94131.00;;;33.80
41940;BMP180;23057;48.554;14.454;2022-08-03T07:24:36;94139.00;;;34.00
41940;BMP180;23057;48.554;14.454;2022-08-03T07:27:07;94141.00;;;34.00
41940;BMP180;23057;48.554;14.454;2022-08-03T07:29:39;94136.00;;;33.90
41940;BMP180;23057;48.554;14.454;2022-08-03T07:32:10;94136.00;;;33.70
41940;BMP180;23057;48.554;14.454;2022-08-03T07:34:40;94134.00;;;33.70
41940;BMP180;23057;48.554;14.454;2022-08-03T07:37:11;94135.00;;;33.90
41940;BMP180;23057;48.554;14.454;2022-08-03T07:39:42;94141.00;;;34.00
41940;BMP180;23057;48.554;14.454;2022-08-03T07:42:13;94138.00;;;34.20
41940;BMP180;23057;48.554;14.454;2022-08-03T07:44:44;94141.00;;;34.30
41940;BMP180;23057;48.554;14.454;2022-08-03T07:47:19;94135.00;;;34.40
41940;BMP180;23057;48.554;14.454;2022-08-03T07:49:54;94136.00;;;34.40
41940;BMP180;23057;48.554;14.454;2022-08-03T07:52:25;94131.00;;;34.50
41940;BMP180;23057;48.554;14.454;2022-08-03T07:55:15;94131.00;;;34.60
41940;BMP180;23057;48.554;14.454;2022-08-03T07:58:07;94131.00;;;34.80
41940;BMP180;23057;48.554;14.454;2022-08-03T08:00:41;94138.00;;;34.90
41940;BMP180;23057;48.554;14.454;2022-08-03T08:03:13;94141.00;;;35.00
41940;BMP180;23057;48.554;14.454;2022-08-03T08:05:44;94133.00;;;35.10
41940;BMP180;23057;48.554;14.454;2022-08-03T08:08:15;94139.00;;;35.30
41940;BMP180;23057;48.554;14.454;2022-08-03T08:10:46;94132.00;;;35.30
41940;BMP180;23057;48.554;14.454;2022-08-03T08:13:17;94139.00;;;35.20
41940;BMP180;23057;48.554;14.454;2022-08-03T08:15:48;94136.00;;;35.20
41940;BMP180;23057;48.554;14.454;2022-08-03T08:18:19;94131.00;;;35.30
41940;BMP180;23057;48.554;14.454;2022-08-03T08:20:50;94132.00;;;35.30
41940;BMP180;23057;48.554;14.454;2022-08-03T08:23:21;94128.00;;;35.40
41940;BMP180;23057;48.554;14.454;2022-08-03T08:25:55;94128.00;;;35.60
41940;BMP180;23057;48.554;14.454;2022-08-03T08:28:25;94133.00;;;35.70
41940;BMP180;23057;48.554;14.454;2022-08-03T08:30:57;94127.00;;;35.80
41940;BMP180;23057;48.554;14.454;2022-08-03T08:33:28;94129.00;;;35.90
41940;BMP180;23057;48.554;14.454;2022-08-03T08:35:59;94129.00;;;35.80
41940;BMP180;23057;48.554;14.454;2022-08-03T08:38:31;94138.00;;;35.80
41940;BMP180;23057;48.554;14.454;2022-08-03T08:41:04;94133.00;;;35.90
41940;BMP180;23057;48.554;14.454;2022-08-03T08:43:35;94134.00;;;36.00
41940;BMP180;23057;48.554;14.454;2022-08-03T08:46:07;94136.00;;;35.90
41940;BMP180;23057;48.554;14.454;2022-08-03T08:48:42;94125.00;;;35.90
41940;BMP180;23057;48.554;14.454;2022-08-03T08:51:18;94136.00;;;35.90
41940;BMP180;23057;48.554;14.454;2022-08-03T08:53:51;94131.00;;;35.90
41940;BMP180;23057;48.554;14.454;2022-08-03T08:56:24;94129.00;;;35.90
41940;BMP180;23057;48.554;14.454;2022-08-03T08:59:00;94128.00;;;36.00
41940;BMP180;23057;48.554;14.454;2022-08-03T09:01:32;94125.00;;;36.00
41940;BMP180;23057;48.554;14.454;2022-08-03T09:04:05;94132.00;;;36.00
41940;BMP180;23057;48.554;14.454;2022-08-03T09:06:36;94128.00;;;36.00
41940;BMP180;23057;48.554;14.454;2022-08-03T09:09:07;94136.00;;;36.00
41940;BMP180;23057;48.554;14.454;2022-08-03T09:11:41;94126.00;;;35.90
41940;BMP180;23057;48.554;14.454;2022-08-03T09:14:12;94123.00;;;35.90
41940;BMP180;23057;48.554;14.454;2022-08-03T09:17:00;94128.00;;;36.00
41940;BMP180;23057;48.554;14.454;2022-08-03T09:19:33;94129.00;;;36.00
41940;BMP180;23057;48.554;14.454;2022-08-03T09:22:16;94132.00;;;36.00
41940;BMP180;23057;48.554;14.454;2022-08-03T09:24:59;94123.00;;;36.00
41940;BMP180;23057;48.554;14.454;2022-08-03T09:27:42;94128.00;;;36.10
41940;BMP180;23057;48.554;14.454;2022-08-03T09:30:16;94131.00;;;36.10
41940;BMP180;23057;48.554;14.454;2022-08-03T09:32:48;94124.00;;;36.20
41940;BMP180;23057;48.554;14.454;2022-08-03T09:35:25;94124.00;;;36.20
41940;BMP180;23057;48.554;14.454;2022-08-03T09:38:16;94128.00;;;36.20
41940;BMP180;23057;48.554;14.454;2022-08-03T09:40:49;94120.00;;;36.20
41940;BMP180;23057;48.554;14.454;2022-08-03T09:43:20;94124.00;;;36.20
41940;BMP180;23057;48.554;14.454;2022-08-03T09:46:01;94124.00;;;36.20
41940;BMP180;23057;48.554;14.454;2022-08-03T09:48:33;94126.00;;;36.30
41940;BMP180;23057;48.554;14.454;2022-08-03T09:51:06;94120.00;;;36.50
41940;BMP180;23057;48.554;14.454;2022-08-03T09:53:42;94121.00;;;36.60
41940;BMP180;23057;48.554;14.454;2022-08-03T09:56:14;94112.00;;;36.60
41940;BMP180;23057;48.554;14.454;2022-08-03T09:58:46;94117.00;;;36.50
41940;BMP180;23057;48.554;14.454;2022-08-03T10:01:17;94119.00;;;36.60
41940;BMP180;23057;48.554;14.454;2022-08-03T10:03:56;94121.00;;;36.80
41940;BMP180;23057;48.554;14.454;2022-08-03T10:06:29;94124.00;;;36.90
41940;BMP180;23057;48.554;14.454;2022-08-03T10:09:09;94123.00;;;36.90
41940;BMP180;23057;48.554;14.454;2022-08-03T10:11:45;94118.00;;;37.10
41940;BMP180;23057;48.554;14.454;2022-08-03T10:14:16;94107.00;;;37.10
41940;BMP180;23057;48.554;14.454;2022-08-03T10:16:51;94120.00;;;37.10
41940;BMP180;23057;48.554;14.454;2022-08-03T10:19:22;94108.00;;;37.10
41940;BMP180;23057;48.554;14.454;2022-08-03T10:21:57;94111.00;;;37.30
41940;BMP180;23057;48.554;14.454;2022-08-03T10:24:33;94110.00;;;37.40
41940;BMP180;23057;48.554;14.454;2022-08-03T10:27:06;94109.00;;;37.50
41940;BMP180;23057;48.554;14.454;2022-08-03T10:29:38;94108.00;;;37.60
41940;BMP180;23057;48.554;14.454;2022-08-03T10:32:20;94107.00;;;37.80
41940;BMP180;23057;48.554;14.454;2022-08-03T10:35:26;94105.00;;;37.90
41940;BMP180;23057;48.554;14.454;2022-08-03T10:38:02;94099.00;;;37.90
41940;BMP180;23057;48.554;14.454;2022-08-03T10:40:39;94104.00;;;38.00
41940;BMP180;23057;48.554;14.454;2022-08-03T10:43:26;94106.00;;;37.90
41940;BMP180;23057;48.554;14.454;2022-08-03T10:46:05;94107.00;;;37.80
41940;BMP180;23057;48.554;14.454;2022-08-03T10:48:38;94099.00;;;37.80
41940;BMP180;23057;48.554;14.454;2022-08-03T10:51:09;94104.00;;;38.00
41940;BMP180;23057;48.554;14.454;2022-08-03T10:53:42;94110.00;;;38.10
41940;BMP180;23057;48.554;14.454;2022-08-03T11:02:20;94100.00;;;38.10
41940;BMP180;23057;48.554;14.454;2022-08-03T11:05:26;94102.00;;;38.10
41940;BMP180;23057;48.554;14.454;2022-08-03T11:08:27;94102.00;;;37.90
41940;BMP180;23057;48.554;14.454;2022-08-03T11:14:09;94098.00;;;37.70
41940;BMP180;23057;48.554;14.454;2022-08-03T11:16:44;94099.00;;;37.60
41940;BMP180;23057;48.554;14.454;2022-08-03T11:19:19;94099.00;;;37.60
41940;BMP180;23057;48.554;14.454;2022-08-03T11:21:56;94099.00;;;37.50
41940;BMP180;23057;48.554;14.454;2022-08-03T11:27:20;94091.00;;;37.80
41940;BMP180;23057;48.554;14.454;2022-08-03T11:43:07;94085.00;;;37.80
41940;BMP180;23057;48.554;14.454;2022-08-03T11:48:42;94091.00;;;37.90
41940;BMP180;23057;48.554;14.454;2022-08-03T11:51:32;94090.00;;;37.90
41940;BMP180;23057;48.554;14.454;2022-08-03T11:54:05;94086.00;;;37.90
41940;BMP180;23057;48.554;14.454;2022-08-03T11:56:47;94087.00;;;37.90
41940;BMP180;23057;48.554;14.454;2022-08-03T11:59:30;94087.00;;;37.90
41940;BMP180;23057;48.554;14.454;2022-08-03T12:02:07;94083.00;;;37.90
41940;BMP180;23057;48.554;14.454;2022-08-03T12:04:56;94077.00;;;38.00
41940;BMP180;23057;48.554;14.454;2022-08-03T12:07:31;94081.00;;;38.00
41940;BMP180;23057;48.554;14.454;2022-08-03T12:10:12;94080.00;;;38.10
41940;BMP180;23057;48.554;14.454;2022-08-03T12:12:44;94076.00;;;38.20
41940;BMP180;23057;48.554;14.454;2022-08-03T12:15:15;94075.00;;;38.30
41940;BMP180;23057;48.554;14.454;2022-08-03T12:17:46;94081.00;;;38.20
41940;BMP180;23057;48.554;14.454;2022-08-03T12:20:24;94079.00;;;38.10
41940;BMP180;23057;48.554;14.454;2022-08-03T12:23:04;94080.00;;;38.20
41940;BMP180;23057;48.554;14.454;2022-08-03T12:25:37;94076.00;;;38.30
41940;BMP180;23057;48.554;14.454;2022-08-03T12:28:15;94079.00;;;38.20
41940;BMP180;23057;48.554;14.454;2022-08-03T12:30:50;94075.00;;;38.10
41940;BMP180;23057;48.554;14.454;2022-08-03T12:33:25;94077.00;;;38.10
41940;BMP180;23057;48.554;14.454;2022-08-03T12:36:08;94078.00;;;38.10
41940;BMP180;23057;48.554;14.454;2022-08-03T12:38:40;94075.00;;;38.20
41940;BMP180;23057;48.554;14.454;2022-08-03T12:41:11;94072.00;;;38.20
41940;BMP180;23057;48.554;14.454;2022-08-03T12:43:48;94072.00;;;38.10
41940;BMP180;23057;48.554;14.454;2022-08-03T12:46:20;94064.00;;;38.00
41940;BMP180;23057;48.554;14.454;2022-08-03T12:49:17;94062.00;;;37.90
41940;BMP180;23057;48.554;14.454;2022-08-03T12:54:21;94065.00;;;38.00
41940;BMP180;23057;48.554;14.454;2022-08-03T12:56:59;94061.00;;;37.90
41940;BMP180;23057;48.554;14.454;2022-08-03T12:59:40;94053.00;;;37.90
41940;BMP180;23057;48.554;14.454;2022-08-03T13:02:20;94055.00;;;38.00
41940;BMP180;23057;48.554;14.454;2022-08-03T13:04:55;94058.00;;;38.10
41940;BMP180;23057;48.554;14.454;2022-08-03T13:07:26;94056.00;;;38.10
41940;BMP180;23057;48.554;14.454;2022-08-03T13:09:57;94050.00;;;38.10
41940;BMP180;23057;48.554;14.454;2022-08-03T13:12:28;94053.00;;;38.10
41940;BMP180;23057;48.554;14.454;2022-08-03T13:14:59;94054.00;;;38.10
41940;BMP180;23057;48.554;14.454;2022-08-03T13:17:30;94055.00;;;38.10
41940;BMP180;23057;48.554;14.454;2022-08-03T13:20:01;94053.00;;;38.20
41940;BMP180;23057;48.554;14.454;2022-08-03T13:22:33;94060.00;;;38.10
41940;BMP180;23057;48.554;14.454;2022-08-03T13:25:04;94052.00;;;38.00
41940;BMP180;23057;48.554;14.454;2022-08-03T13:27:35;94051.00;;;38.00
41940;BMP180;23057;48.554;14.454;2022-08-03T13:30:06;94049.00;;;37.90
41940;BMP180;23057;48.554;14.454;2022-08-03T13:32:38;94042.00;;;37.90
41940;BMP180;23057;48.554;14.454;2022-08-03T13:35:09;94051.00;;;37.90
41940;BMP180;23057;48.554;14.454;2022-08-03T13:37:40;94049.00;;;38.00
41940;BMP180;23057;48.554;14.454;2022-08-03T13:40:11;94048.00;;;38.10
41940;BMP180;23057;48.554;14.454;2022-08-03T13:42:42;94047.00;;;38.20
41940;BMP180;23057;48.554;14.454;2022-08-03T13:45:13;94043.00;;;38.20
41940;BMP180;23057;48.554;14.454;2022-08-03T13:47:44;94051.00;;;38.10
41940;BMP180;23057;48.554;14.454;2022-08-03T13:50:15;94039.00;;;38.00
41940;BMP180;23057;48.554;14.454;2022-08-03T13:52:46;94038.00;;;38.00
41940;BMP180;23057;48.554;14.454;2022-08-03T13:55:17;94036.00;;;37.90
41940;BMP180;23057;48.554;14.454;2022-08-03T13:57:48;94024.00;;;37.90
41940;BMP180;23057;48.554;14.454;2022-08-03T14:00:19;94023.00;;;37.90
41940;BMP180;23057;48.554;14.454;2022-08-03T14:02:56;94025.00;;;37.90
41940;BMP180;23057;48.554;14.454;2022-08-03T14:05:30;94030.00;;;37.90
41940;BMP180;23057;48.554;14.454;2022-08-03T14:08:01;94026.00;;;37.80
41940;BMP180;23057;48.554;14.454;2022-08-03T14:10:36;94024.00;;;37.80
41940;BMP180;23057;48.554;14.454;2022-08-03T14:13:10;94024.00;;;37.70
41940;BMP180;23057;48.554;14.454;2022-08-03T14:15:42;94029.00;;;37.70
41940;BMP180;23057;48.554;14.454;2022-08-03T14:18:13;94020.00;;;37.70
41940;BMP180;23057;48.554;14.454;2022-08-03T14:20:43;94024.00;;;37.70
41940;BMP180;23057;48.554;14.454;2022-08-03T14:23:15;94022.00;;;37.70
41940;BMP180;23057;48.554;14.454;2022-08-03T14:25:46;94021.00;;;37.80
41940;BMP180;23057;48.554;14.454;2022-08-03T14:28:18;94021.00;;;37.80
41940;BMP180;23057;48.554;14.454;2022-08-03T14:30:54;94014.00;;;37.80
41940;BMP180;23057;48.554;14.454;2022-08-03T14:33:25;94024.00;;;37.80
41940;BMP180;23057;48.554;14.454;2022-08-03T14:35:58;94021.00;;;37.80
41940;BMP180;23057;48.554;14.454;2022-08-03T14:38:28;94025.00;;;37.80
41940;BMP180;23057;48.554;14.454;2022-08-03T14:40:59;94016.00;;;37.80
41940;BMP180;23057;48.554;14.454;2022-08-03T14:43:30;94013.00;;;37.70
41940;BMP180;23057;48.554;14.454;2022-08-03T14:46:01;94015.00;;;37.70
41940;BMP180;23057;48.554;14.454;2022-08-03T14:48:32;94012.00;;;37.70
41940;BMP180;23057;48.554;14.454;2022-08-03T14:51:03;94015.00;;;37.70
41940;BMP180;23057;48.554;14.454;2022-08-03T14:53:35;94011.00;;;37.70
41940;BMP180;23057;48.554;14.454;2022-08-03T14:56:07;94013.00;;;37.60
41940;BMP180;23057;48.554;14.454;2022-08-03T14:58:38;94010.00;;;37.50
41940;BMP180;23057;48.554;14.454;2022-08-03T15:01:09;94009.00;;;37.50
41940;BMP180;23057;48.554;14.454;2022-08-03T15:03:39;94008.00;;;37.50
41940;BMP180;23057;48.554;14.454;2022-08-03T15:06:11;94006.00;;;37.50
41940;BMP180;23057;48.554;14.454;2022-08-03T15:08:41;94011.00;;;37.60
41940;BMP180;23057;48.554;14.454;2022-08-03T15:11:12;94005.00;;;37.60
41940;BMP180;23057;48.554;14.454;2022-08-03T15:13:44;94002.00;;;37.50
41940;BMP180;23057;48.554;14.454;2022-08-03T15:16:14;93996.00;;;37.40
41940;BMP180;23057;48.554;14.454;2022-08-03T15:18:45;93992.00;;;37.40